sensor_id;sensor_type;location;lat;lon;timestamp;pressure;altitude;pressure_sealevel;temperature;humidity
5350;BME280;2697;42.144;24.794;2023-01-08T00:00:40;153265.97;;;2.71;100.00
5350;BME280;2697;42.144;24.794;2023-01-08T00:03:06;153275.13;;;2.75;100.00
5350;BME280;2697;42.144;24.794;2023-01-08T00:05:31;153251.56;;;2.66;100.00
5350;BME280;2697;42.144;24.794;2023-01-08T00:07:56;153230.63;;;2.57;100.00
5350;BME280;2697;42.144;24.794;2023-01-08T00:10:22;153245.03;;;2.63;100.00
5350;BME280;2697;42.144;24.794;2023-01-08T00:12:47;153246.34;;;2.64;100.00
5350;BME280;2697;42.144;24.794;2023-01-08T00:15:13;153209.72;;;2.49;100.00
5350;BME280;2697;42.144;24.794;2023-01-08T00:17:38;153188.78;;;2.41;100.00
5350;BME280;2697;42.144;24.794;2023-01-08T00:20:04;153201.88;;;2.46;100.00
5350;BME280;2697;42.144;24.794;2023-01-08T00:22:30;153175.72;;;2.36;100.00
5350;BME280;2697;42.144;24.794;2023-01-08T00:24:55;153194.03;;;2.43;100.00
5350;BME280;2697;42.144;24.794;2023-01-08T00:27:20;153122.31;;;2.31;100.00
5350;BME280;2697;42.144;24.794;2023-01-08T00:29:46;146848.81;;;2.11;100.00
5350;BME280;2697;42.144;24.794;2023-01-08T00:32:11;132184.13;;;2.06;100.00
5350;BME280;2697;42.144;24.794;2023-01-08T00:34:36;117483.75;;;1.96;100.00
5350;BME280;2697;42.144;24.794;2023-01-08T00:37:02;106932.03;;;1.95;100.00
5350;BME280;2697;42.144;24.794;2023-01-08T00:39:27;92342.09;;;1.94;100.00
5350;BME280;2697;42.144;24.794;2023-01-08T00:41:52;84887.94;;;1.87;100.00
5350;BME280;2697;42.144;24.794;2023-01-08T00:44:18;80837.66;;;1.89;100.00
5350;BME280;2697;42.144;24.794;2023-01-08T00:46:43;74777.25;;;1.99;100.00
5350;BME280;2697;42.144;24.794;2023-01-08T00:49:09;72083.03;;;2.02;100.00
5350;BME280;2697;42.144;24.794;2023-01-08T00:51:34;72399.66;;;1.85;100.00
5350;BME280;2697;42.144;24.794;2023-01-08T00:53:59;68359.88;;;1.86;100.00
5350;BME280;2697;42.144;24.794;2023-01-08T00:56:25;65336.25;;;1.90;100.00
5350;BME280;2697;42.144;24.794;2023-01-08T00:58:50;61655.47;;;2.07;100.00
5350;BME280;2697;42.144;24.794;2023-01-08T01:01:15;58989.47;;;2.29;100.00
5350;BME280;2697;42.144;24.794;2023-01-08T01:03:41;64036.91;;;2.33;100.00
5350;BME280;2697;42.144;24.794;2023-01-08T01:06:07;66386.16;;;2.26;100.00
5350;BME280;2697;42.144;24.794;2023-01-08T01:08:33;68736.88;;;2.21;100.00
5350;BME280;2697;42.144;24.794;2023-01-08T01:10:58;67042.91;;;2.12;100.00
5350;BME280;2697;42.144;24.794;2023-01-08T01:13:24;64350.91;;;2.12;100.00
5350;BME280;2697;42.144;24.794;2023-01-08T01:15:59;63665.16;;;1.99;100.00
5350;BME280;2697;42.144;24.794;2023-01-08T01:18:26;60310.16;;;2.06;100.00
5350;BME280;2697;42.144;24.794;2023-01-08T01:20:52;59962.88;;;1.94;100.00
5350;BME280;2697;42.144;24.794;2023-01-08T01:23:17;61630.22;;;1.82;100.00
5350;BME280;2697;42.144;24.794;2023-01-08T01:25:42;59623.94;;;1.91;100.00
5350;BME280;2697;42.144;24.794;2023-01-08T01:28:08;59294.16;;;1.97;100.00
5350;BME280;2697;42.144;24.794;2023-01-08T01:30:33;58950.75;;;1.90;100.00
5350;BME280;2697;42.144;24.794;2023-01-08T01:32:59;60957.25;;;1.81;100.00
5350;BME280;2697;42.144;24.794;2023-01-08T01:35:24;59269.88;;;1.73;100.00
5350;BME280;2697;42.144;24.794;2023-01-08T01:37:49;56587.22;;;1.76;100.00
5350;BME280;2697;42.144;24.794;2023-01-08T01:40:15;54244.31;;;1.81;100.00
5350;BME280;2697;42.144;24.794;2023-01-08T01:42:40;56617.19;;;2.07;100.00
5350;BME280;2697;42.144;24.794;2023-01-08T01:45:20;56618.66;;;2.09;100.00
5350;BME280;2697;42.144;24.794;2023-01-08T01:48:01;66045.56;;;2.23;100.00
5350;BME280;2697;42.144;24.794;2023-01-08T01:50:37;68733.38;;;2.18;100.00
5350;BME280;2697;42.144;24.794;2023-01-08T01:53:15;67354.28;;;1.89;100.00
5350;BME280;2697;42.144;24.794;2023-01-08T01:55:42;66666.50;;;1.76;100.00
5350;BME280;2697;42.144;24.794;2023-01-08T01:58:16;64972.75;;;1.65;100.00
5350;BME280;2697;42.144;24.794;2023-01-08T02:00:42;63281.94;;;1.55;100.00
5350;BME280;2697;42.144;24.794;2023-01-08T02:03:12;60919.31;;;1.44;100.00
5350;BME280;2697;42.144;24.794;2023-01-08T02:05:55;57224.66;;;1.40;100.00
5350;BME280;2697;42.144;24.794;2023-01-08T02:08:36;54539.59;;;1.37;100.00
5350;BME280;2697;42.144;24.794;2023-01-08T02:11:09;49514.72;;;1.36;100.00
5350;BME280;2697;42.144;24.794;2023-01-08T02:13:40;41839.13;;;1.58;100.00
5350;BME280;2697;42.144;24.794;2023-01-08T02:16:15;42187.81;;;1.79;100.00
5350;BME280;2697;42.144;24.794;2023-01-08T02:18:47;45876.16;;;1.90;100.00
5350;BME280;2697;42.144;24.794;2023-01-08T02:27:18;47545.97;;;1.85;100.00
5350;BME280;2697;42.144;24.794;2023-01-08T02:29:44;45534.44;;;1.81;100.00
5350;BME280;2697;42.144;24.794;2023-01-08T02:32:11;45524.31;;;1.68;100.00
5350;BME280;2697;42.144;24.794;2023-01-08T02:34:37;46514.56;;;1.51;100.00
5350;BME280;2697;42.144;24.794;2023-01-08T02:37:03;44499.41;;;1.39;100.00
5350;BME280;2697;42.144;24.794;2023-01-08T02:39:55;41490.38;;;1.37;100.00
5350;BME280;2697;42.144;24.794;2023-01-08T02:47:46;34150.63;;;1.41;100.00
5350;BME280;2697;42.144;24.794;2023-01-08T02:50:34;35476.38;;;1.28;100.00
5350;BME280;2697;42.144;24.794;2023-01-08T02:53:15;36470.66;;;1.18;100.00
5350;BME280;2697;42.144;24.794;2023-01-08T02:55:45;36795.03;;;1.03;100.00
5350;BME280;2697;42.144;24.794;2023-01-08T02:58:12;36789.00;;;0.93;100.00
5350;BME280;2697;42.144;24.794;2023-01-08T03:00:40;35788.63;;;0.93;100.00
5350;BME280;2697;42.144;24.794;2023-01-08T03:03:24;35120.53;;;0.90;100.00
5350;BME280;2697;42.144;24.794;2023-01-08T03:05:54;34788.19;;;0.92;100.00
5350;BME280;2697;42.144;24.794;2023-01-08T03:08:22;35459.59;;;1.00;100.00
5350;BME280;2697;42.144;24.794;2023-01-08T03:10:55;38788.25;;;0.91;100.00
5350;BME280;2697;42.144;24.794;2023-01-08T03:13:33;39110.75;;;0.74;100.00
5350;BME280;2697;42.144;24.794;2023-01-08T03:16:07;38433.91;;;0.59;100.00
5350;BME280;2697;42.144;24.794;2023-01-08T03:18:40;36432.72;;;0.56;100.00
5350;BME280;2697;42.144;24.794;2023-01-08T03:21:08;36747.56;;;0.26;100.00
5350;BME280;2697;42.144;24.794;2023-01-08T03:23:35;34745.69;;;0.19;100.00
5350;BME280;2697;42.144;24.794;2023-01-08T03:26:02;32090.63;;;0.32;100.00
5350;BME280;2697;42.144;24.794;2023-01-08T03:28:36;27441.75;;;0.44;100.00
5350;BME280;2697;42.144;24.794;2023-01-08T03:31:05;23456.75;;;0.46;100.00
5350;BME280;2697;42.144;24.794;2023-01-08T03:33:31;19480.44;;;0.64;100.00
5350;BME280;2697;42.144;24.794;2023-01-08T03:36:00;16827.34;;;0.64;100.00
5350;BME280;2697;42.144;24.794;2023-01-08T03:38:41;13849.03;;;0.82;100.00
5350;BME280;2697;42.144;24.794;2023-01-08T03:41:11;12856.50;;;0.89;100.00
5350;BME280;2697;42.144;24.794;2023-01-08T03:43:38;13191.06;;;1.03;100.00
5350;BME280;2697;42.144;24.794;2023-01-08T03:46:08;13528.34;;;1.27;100.00
5350;BME280;2697;42.144;24.794;2023-01-08T03:48:34;14523.28;;;1.27;100.00
5350;BME280;2697;42.144;24.794;2023-01-08T03:51:00;15857.03;;;1.52;100.00
5350;BME280;2697;42.144;24.794;2023-01-08T03:53:26;18842.47;;;1.42;100.00
5350;BME280;2697;42.144;24.794;2023-01-08T03:55:52;19841.47;;;1.49;100.00
5350;BME280;2697;42.144;24.794;2023-01-08T03:58:17;21503.69;;;1.51;100.00
5350;BME280;2697;42.144;24.794;2023-01-08T04:00:43;24486.34;;;1.26;100.00
5350;BME280;2697;42.144;24.794;2023-01-08T04:03:08;22825.00;;;1.29;100.00
5350;BME280;2697;42.144;24.794;2023-01-08T04:05:33;21832.69;;;1.41;100.00
5350;BME280;2697;42.144;24.794;2023-01-08T04:07:59;22165.09;;;1.41;100.00
5350;BME280;2697;42.144;24.794;2023-01-08T04:10:24;24822.78;;;1.35;100.00
5350;BME280;2697;42.144;24.794;2023-01-08T04:12:50;26151.44;;;1.31;100.00
5350;BME280;2697;42.144;24.794;2023-01-08T04:15:16;27807.59;;;1.14;100.00
5350;BME280;2697;42.144;24.794;2023-01-08T04:17:41;28462.81;;;0.93;100.00
5350;BME280;2697;42.144;24.794;2023-01-08T04:20:07;26134.41;;;0.93;100.00
5350;BME280;2697;42.144;24.794;2023-01-08T04:22:33;23814.69;;;1.10;100.00
5350;BME280;2697;42.144;24.794;2023-01-08T04:24:58;24804.22;;;0.92;100.00
5350;BME280;2697;42.144;24.794;2023-01-08T04:27:24;25459.97;;;0.71;100.00
5350;BME280;2697;42.144;24.794;2023-01-08T04:29:49;23468.81;;;0.76;100.00
5350;BME280;2697;42.144;24.794;2023-01-08T04:32:15;22801.94;;;0.70;100.00
5350;BME280;2697;42.144;24.794;2023-01-08T04:34:40;23459.81;;;0.54;100.00
5350;BME280;2697;42.144;24.794;2023-01-08T04:37:05;22470.06;;;0.70;100.00
5350;BME280;2697;42.144;24.794;2023-01-08T04:39:31;27125.41;;;0.78;100.00
5350;BME280;2697;42.144;24.794;2023-01-08T04:41:56;31096.50;;;0.39;100.00
5350;BME280;2697;42.144;24.794;2023-01-08T04:44:21;32738.50;;;0.00;100.00
5350;BME280;2697;42.144;24.794;2023-01-08T04:46:47;32388.63;;;-0.32;100.00
5350;BME280;2697;42.144;24.794;2023-01-08T04:49:13;28410.84;;;-0.14;100.00
5350;BME280;2697;42.144;24.794;2023-01-08T04:51:38;26747.63;;;-0.21;100.00
5350;BME280;2697;42.144;24.794;2023-01-08T04:54:04;25086.59;;;-0.25;100.00
5350;BME280;2697;42.144;24.794;2023-01-08T04:56:29;22772.31;;;-0.06;100.00
5350;BME280;2697;42.144;24.794;2023-01-08T04:58:55;23769.50;;;-0.01;100.00
5350;BME280;2697;42.144;24.794;2023-01-08T05:01:23;25754.00;;;-0.16;100.00
5350;BME280;2697;42.144;24.794;2023-01-08T05:04:00;25748.63;;;-0.29;100.00
5350;BME280;2697;42.144;24.794;2023-01-08T05:06:27;25083.34;;;-0.33;100.00
5350;BME280;2697;42.144;24.794;2023-01-08T05:08:53;24422.06;;;-0.27;100.00
5350;BME280;2697;42.144;24.794;2023-01-08T05:11:19;25090.97;;;-0.15;100.00
5350;BME280;2697;42.144;24.794;2023-01-08T05:13:49;28063.66;;;-0.46;100.00
5350;BME280;2697;42.144;24.794;2023-01-08T05:16:15;28056.84;;;-0.60;100.00
5350;BME280;2697;42.144;24.794;2023-01-08T05:18:42;25075.06;;;-0.52;100.00
5350;BME280;2697;42.144;24.794;2023-01-08T05:21:07;23746.72;;;-0.57;100.00
5350;BME280;2697;42.144;24.794;2023-01-08T05:23:33;21098.78;;;-0.49;100.00
5350;BME280;2697;42.144;24.794;2023-01-08T05:25:59;19110.50;;;-0.52;100.00
5350;BME280;2697;42.144;24.794;2023-01-08T05:28:26;16464.84;;;-0.44;100.00
5350;BME280;2697;42.144;24.794;2023-01-08T05:30:52;14148.41;;;-0.46;100.00
5350;BME280;2697;42.144;24.794;2023-01-08T05:33:17;11508.88;;;-0.20;100.00
5350;BME280;2697;42.144;24.794;2023-01-08T05:35:43;9197.53;;;-0.06;100.00
5350;BME280;2697;42.144;24.794;2023-01-08T05:38:08;7216.03;;;0.02;100.00
5350;BME280;2697;42.144;24.794;2023-01-08T05:40:34;5894.31;;;-0.02;100.00
5350;BME280;2697;42.144;24.794;2023-01-08T05:43:00;4243.59;;;0.01;100.00
5350;BME280;2697;42.144;24.794;2023-01-08T05:45:26;2923.16;;;-0.02;100.00
5350;BME280;2697;42.144;24.794;2023-01-08T05:47:51;2263.00;;;-0.05;100.00
5350;BME280;2697;42.144;24.794;2023-01-08T05:50:17;2263.31;;;0.01;100.00
5350;BME280;2697;42.144;24.794;2023-01-08T05:52:42;2263.19;;;-0.02;100.00
5350;BME280;2697;42.144;24.794;2023-01-08T05:55:08;1933.06;;;-0.06;100.00
5350;BME280;2697;42.144;24.794;2023-01-08T05:57:33;614.09;;;0.09;100.00
5350;BME280;2697;42.144;24.794;2023-01-08T05:59:59;-375.25;;;0.20;100.00
5350;BME280;2697;42.144;24.794;2023-01-08T06:02:24;-1034.88;;;0.55;100.00
5350;BME280;2697;42.144;24.794;2023-01-08T06:04:49;-44.59;;;0.71;100.00
5350;BME280;2697;42.144;24.794;2023-01-08T06:07:15;1937.44;;;0.85;100.00
5350;BME280;2697;42.144;24.794;2023-01-08T06:09:40;4251.13;;;0.89;100.00
5350;BME280;2697;42.144;24.794;2023-01-08T06:12:06;5242.38;;;0.82;100.00
5350;BME280;2697;42.144;24.794;2023-01-08T06:14:31;6897.84;;;0.96;100.00
5350;BME280;2697;42.144;24.794;2023-01-08T06:16:57;8885.66;;;1.09;100.00
5350;BME280;2697;42.144;24.794;2023-01-08T06:19:22;9878.03;;;1.03;100.00
5350;BME280;2697;42.144;24.794;2023-01-08T06:21:47;9214.03;;;0.93;100.00
5350;BME280;2697;42.144;24.794;2023-01-08T06:24:14;7558.22;;;0.86;100.00
5350;BME280;2697;42.144;24.794;2023-01-08T06:26:39;5905.66;;;0.99;100.00
5350;BME280;2697;42.144;24.794;2023-01-08T06:29:05;5245.94;;;1.17;100.00
5350;BME280;2697;42.144;24.794;2023-01-08T06:31:30;6239.13;;;1.21;100.00
5350;BME280;2697;42.144;24.794;2023-01-08T06:33:55;8557.25;;;1.26;100.00
5350;BME280;2697;42.144;24.794;2023-01-08T06:36:21;10212.56;;;1.21;100.00
5350;BME280;2697;42.144;24.794;2023-01-08T06:38:46;11537.13;;;1.17;100.00
5350;BME280;2697;42.144;24.794;2023-01-08T06:41:11;11205.03;;;1.13;100.00
5350;BME280;2697;42.144;24.794;2023-01-08T06:43:37;10875.41;;;1.22;100.00
5350;BME280;2697;42.144;24.794;2023-01-08T06:46:04;11204.53;;;1.11;100.00
5350;BME280;2697;42.144;24.794;2023-01-08T06:48:30;10541.16;;;1.07;100.00
5350;BME280;2697;42.144;24.794;2023-01-08T06:50:58;10212.00;;;1.18;100.00
5350;BME280;2697;42.144;24.794;2023-01-08T06:53:24;13513.78;;;0.66;100.00
5350;BME280;2697;42.144;24.794;2023-01-08T06:55:49;12518.84;;;0.61;100.00
5350;BME280;2697;42.144;24.794;2023-01-08T06:58:20;12845.28;;;0.40;100.00
5350;BME280;2697;42.144;24.794;2023-01-08T07:00:45;12512.63;;;0.33;100.00
5350;BME280;2697;42.144;24.794;2023-01-08T07:03:10;11523.00;;;0.48;100.00
5350;BME280;2697;42.144;24.794;2023-01-08T07:05:36;11193.31;;;0.55;100.00
5350;BME280;2697;42.144;24.794;2023-01-08T07:08:01;10862.41;;;0.55;100.00
5350;BME280;2697;42.144;24.794;2023-01-08T07:10:27;10532.59;;;0.62;100.00
5350;BME280;2697;42.144;24.794;2023-01-08T07:12:52;11196.16;;;0.69;100.00
5350;BME280;2697;42.144;24.794;2023-01-08T07:15:17;11862.06;;;0.87;100.00
5350;BME280;2697;42.144;24.794;2023-01-08T07:17:43;13523.47;;;1.07;100.00
5350;BME280;2697;42.144;24.794;2023-01-08T07:20:08;17170.72;;;1.04;100.00
5350;BME280;2697;42.144;24.794;2023-01-08T07:22:34;19156.44;;;0.87;100.00
5350;BME280;2697;42.144;24.794;2023-01-08T07:24:59;20825.25;;;1.12;100.00
5350;BME280;2697;42.144;24.794;2023-01-08T07:27:25;21826.97;;;1.26;100.00
5350;BME280;2697;42.144;24.794;2023-01-08T07:29:50;25823.44;;;1.41;100.00
5350;BME280;2697;42.144;24.794;2023-01-08T07:32:16;27157.91;;;1.49;100.00
5350;BME280;2697;42.144;24.794;2023-01-08T07:34:41;29808.50;;;1.22;100.00
5350;BME280;2697;42.144;24.794;2023-01-08T07:37:07;27811.19;;;1.22;100.00
5350;BME280;2697;42.144;24.794;2023-01-08T07:39:32;25484.53;;;1.27;100.00
5350;BME280;2697;42.144;24.794;2023-01-08T07:41:58;25169.84;;;1.69;100.00
5350;BME280;2697;42.144;24.794;2023-01-08T07:44:23;27832.66;;;1.67;100.00
5350;BME280;2697;42.144;24.794;2023-01-08T07:46:49;25831.06;;;1.59;100.00
5350;BME280;2697;42.144;24.794;2023-01-08T07:49:14;23505.66;;;1.68;100.00
5350;BME280;2697;42.144;24.794;2023-01-08T07:51:39;23507.31;;;1.72;100.00
5350;BME280;2697;42.144;24.794;2023-01-08T07:54:05;22846.53;;;1.84;100.00
5350;BME280;2697;42.144;24.794;2023-01-08T07:56:30;25178.59;;;1.89;100.00
5350;BME280;2697;42.144;24.794;2023-01-08T07:58:55;26187.78;;;2.12;100.00
5350;BME280;2697;42.144;24.794;2023-01-08T08:01:21;28525.44;;;2.22;100.00
5350;BME280;2697;42.144;24.794;2023-01-08T08:03:46;29203.19;;;2.44;100.00
5350;BME280;2697;42.144;24.794;2023-01-08T08:06:12;33213.06;;;2.53;100.00
5350;BME280;2697;42.144;24.794;2023-01-08T08:08:37;36236.16;;;2.79;100.00
5350;BME280;2697;42.144;24.794;2023-01-08T08:11:03;42940.31;;;2.95;100.00
5350;BME280;2697;42.144;24.794;2023-01-08T08:13:28;47639.59;;;3.02;100.00
5350;BME280;2697;42.144;24.794;2023-01-08T08:15:54;55712.81;;;3.17;100.00
5350;BME280;2697;42.144;24.794;2023-01-08T08:18:19;60780.25;;;3.37;100.00
5350;BME280;2697;42.144;24.794;2023-01-08T08:20:45;66860.50;;;3.50;100.00
5350;BME280;2697;42.144;24.794;2023-01-08T08:23:12;77032.06;;;3.79;100.00
5350;BME280;2697;42.144;24.794;2023-01-08T08:25:39;86528.97;;;3.87;100.00
5350;BME280;2697;42.144;24.794;2023-01-08T08:28:05;89949.41;;;4.05;100.00
5350;BME280;2697;42.144;24.794;2023-01-08T08:30:32;99495.91;;;4.20;100.00
5350;BME280;2697;42.144;24.794;2023-01-08T08:33:00;115211.75;;;4.32;100.00
5350;BME280;2697;42.144;24.794;2023-01-08T08:35:25;133775.59;;;4.59;100.00
5350;BME280;2697;42.144;24.794;2023-01-08T08:37:52;153749.06;;;4.59;100.00
5350;BME280;2697;42.144;24.794;2023-01-08T08:40:18;153814.59;;;4.84;100.00
5350;BME280;2697;42.144;24.794;2023-01-08T08:42:43;153822.44;;;4.88;100.00
5350;BME280;2697;42.144;24.794;2023-01-08T08:45:09;153838.19;;;4.94;100.00
5350;BME280;2697;42.144;24.794;2023-01-08T08:47:34;153881.41;;;5.10;100.00
5350;BME280;2697;42.144;24.794;2023-01-08T08:50:00;153924.69;;;5.27;100.00
5350;BME280;2697;42.144;24.794;2023-01-08T08:52:26;153922.06;;;5.26;100.00
5350;BME280;2697;42.144;24.794;2023-01-08T08:54:51;153953.50;;;5.38;100.00
5350;BME280;2697;42.144;24.794;2023-01-08T08:57:17;153998.09;;;5.56;100.00
5350;BME280;2697;42.144;24.794;2023-01-08T08:59:42;154037.47;;;5.71;100.00
5350;BME280;2697;42.144;24.794;2023-01-08T09:02:10;154080.75;;;5.88;100.00
5350;BME280;2697;42.144;24.794;2023-01-08T09:04:36;154118.81;;;6.03;100.00
5350;BME280;2697;42.144;24.794;2023-01-08T09:07:01;154163.41;;;6.20;100.00
5350;BME280;2697;42.144;24.794;2023-01-08T09:09:26;154180.50;;;6.26;100.00
5350;BME280;2697;42.144;24.794;2023-01-08T09:11:52;154200.19;;;6.34;100.00
5350;BME280;2697;42.144;24.794;2023-01-08T09:14:19;154248.75;;;6.53;100.00
5350;BME280;2697;42.144;24.794;2023-01-08T09:16:44;154259.22;;;6.57;100.00
5350;BME280;2697;42.144;24.794;2023-01-08T09:19:10;154299.91;;;6.73;100.00
5350;BME280;2697;42.144;24.794;2023-01-08T09:21:36;154347.19;;;6.91;100.00
5350;BME280;2697;42.144;24.794;2023-01-08T09:24:02;154368.19;;;6.99;100.00
5350;BME280;2697;42.144;24.794;2023-01-08T09:26:27;154395.75;;;7.10;100.00
5350;BME280;2697;42.144;24.794;2023-01-08T09:28:55;154376.06;;;7.02;100.00
5350;BME280;2697;42.144;24.794;2023-01-08T09:31:20;154408.88;;;7.15;100.00
5350;BME280;2697;42.144;24.794;2023-01-08T09:33:46;154402.31;;;7.12;100.00
5350;BME280;2697;42.144;24.794;2023-01-08T09:36:12;154431.19;;;7.24;100.00
5350;BME280;2697;42.144;24.794;2023-01-08T09:38:37;154444.34;;;7.29;100.00
5350;BME280;2697;42.144;24.794;2023-01-08T09:41:10;154486.38;;;7.45;100.00
5350;BME280;2697;42.144;24.794;2023-01-08T09:43:38;154494.25;;;7.48;100.00
5350;BME280;2697;42.144;24.794;2023-01-08T09:46:06;154542.84;;;7.67;100.00
5350;BME280;2697;42.144;24.794;2023-01-08T09:48:37;154540.22;;;7.66;100.00
5350;BME280;2697;42.144;24.794;2023-01-08T09:51:03;154579.59;;;7.81;100.00
5350;BME280;2697;42.144;24.794;2023-01-08T09:53:29;154586.22;;;7.84;100.00
5350;BME280;2697;42.144;24.794;2023-01-08T09:56:02;154552.03;;;7.70;100.00
5350;BME280;2697;42.144;24.794;2023-01-08T09:58:36;154612.47;;;7.94;100.00
5350;BME280;2697;42.144;24.794;2023-01-08T10:01:02;154651.88;;;8.09;100.00
5350;BME280;2697;42.144;24.794;2023-01-08T10:03:39;154638.75;;;8.04;100.00
5350;BME280;2697;42.144;24.794;2023-01-08T10:06:10;154675.53;;;8.18;100.00
5350;BME280;2697;42.144;24.794;2023-01-08T10:08:36;154675.53;;;8.18;100.00
5350;BME280;2697;42.144;24.794;2023-01-08T10:11:03;154720.28;;;8.36;100.00
5350;BME280;2697;42.144;24.794;2023-01-08T10:13:28;154725.56;;;8.38;99.35
5350;BME280;2697;42.144;24.794;2023-01-08T10:15:54;154753.16;;;8.48;99.88
5350;BME280;2697;42.144;24.794;2023-01-08T10:18:22;154761.03;;;8.51;100.00
5350;BME280;2697;42.144;24.794;2023-01-08T10:20:49;154753.16;;;8.48;99.17
5350;BME280;2697;42.144;24.794;2023-01-08T10:23:17;154797.88;;;8.66;95.24
5350;BME280;2697;42.144;24.794;2023-01-08T10:25:55;154809.69;;;8.70;95.65
5350;BME280;2697;42.144;24.794;2023-01-08T10:28:32;154813.63;;;8.72;97.97
5350;BME280;2697;42.144;24.794;2023-01-08T10:31:14;154855.69;;;8.88;96.90
5350;BME280;2697;42.144;24.794;2023-01-08T10:33:45;154835.97;;;8.80;91.41
5350;BME280;2697;42.144;24.794;2023-01-08T10:36:14;154846.50;;;8.84;94.03
5350;BME280;2697;42.144;24.794;2023-01-08T10:38:50;154859.63;;;8.90;93.10
5350;BME280;2697;42.144;24.794;2023-01-08T10:41:17;154916.16;;;9.11;90.04
5350;BME280;2697;42.144;24.794;2023-01-08T10:43:57;154904.34;;;9.07;91.24
5350;BME280;2697;42.144;24.794;2023-01-08T10:46:34;154864.88;;;8.92;88.93
5350;BME280;2697;42.144;24.794;2023-01-08T10:49:02;154930.66;;;9.17;90.53
5350;BME280;2697;42.144;24.794;2023-01-08T10:51:30;154935.91;;;9.19;88.96
5350;BME280;2697;42.144;24.794;2023-01-08T10:54:14;154953.03;;;9.26;88.63
5350;BME280;2697;42.144;24.794;2023-01-08T10:56:47;154975.38;;;9.34;89.42
5350;BME280;2697;42.144;24.794;2023-01-08T10:59:19;154999.06;;;9.43;86.93
5350;BME280;2697;42.144;24.794;2023-01-08T11:01:48;155034.56;;;9.57;87.07
5350;BME280;2697;42.144;24.794;2023-01-08T11:04:26;155051.69;;;9.64;87.34
5350;BME280;2697;42.144;24.794;2023-01-08T11:06:52;155050.38;;;9.63;85.05
5350;BME280;2697;42.144;24.794;2023-01-08T11:09:27;155080.63;;;9.75;84.97
5350;BME280;2697;42.144;24.794;2023-01-08T11:11:54;155080.63;;;9.75;83.15
5350;BME280;2697;42.144;24.794;2023-01-08T11:14:32;155120.13;;;9.90;84.10
5350;BME280;2697;42.144;24.794;2023-01-08T11:17:07;155075.38;;;9.73;83.08
5350;BME280;2697;42.144;24.794;2023-01-08T11:19:33;155056.94;;;9.66;79.31
5350;BME280;2697;42.144;24.794;2023-01-08T11:22:02;155085.91;;;9.77;82.85
5350;BME280;2697;42.144;24.794;2023-01-08T11:24:35;155118.81;;;9.90;81.47
5350;BME280;2697;42.144;24.794;2023-01-08T11:27:03;155158.31;;;10.05;80.86
5350;BME280;2697;42.144;24.794;2023-01-08T11:32:20;155163.56;;;10.07;80.49
5350;BME280;2697;42.144;24.794;2023-01-08T11:37:38;155196.44;;;10.20;79.71
5350;BME280;2697;42.144;24.794;2023-01-08T11:40:16;155225.44;;;10.31;79.03
5350;BME280;2697;42.144;24.794;2023-01-08T11:45:59;155259.72;;;10.44;76.38
5350;BME280;2697;42.144;24.794;2023-01-08T11:53:50;155218.88;;;10.28;76.60
5350;BME280;2697;42.144;24.794;2023-01-08T11:56:44;155212.31;;;10.26;76.14
5350;BME280;2697;42.144;24.794;2023-01-08T11:59:22;155214.94;;;10.27;76.35
5350;BME280;2697;42.144;24.794;2023-01-08T12:13:23;155284.72;;;10.54;75.42
5350;BME280;2697;42.144;24.794;2023-01-08T12:19:02;155287.34;;;10.55;76.03
5350;BME280;2697;42.144;24.794;2023-01-08T12:21:23;155264.97;;;10.46;74.25
5350;BME280;2697;42.144;24.794;2023-01-08T12:23:58;155320.25;;;10.68;73.85
5350;BME280;2697;42.144;24.794;2023-01-08T12:32:42;155293.91;;;10.57;73.67
5350;BME280;2697;42.144;24.794;2023-01-08T12:35:56;155316.31;;;10.66;73.87
5350;BME280;2697;42.144;24.794;2023-01-08T12:41:13;155292.59;;;10.57;71.96
5350;BME280;2697;42.144;24.794;2023-01-08T12:46:13;155293.91;;;10.57;72.81
5350;BME280;2697;42.144;24.794;2023-01-08T12:48:42;155322.88;;;10.69;72.57
5350;BME280;2697;42.144;24.794;2023-01-08T12:51:34;155293.91;;;10.57;73.90
5350;BME280;2697;42.144;24.794;2023-01-08T13:07:48;155272.84;;;10.49;71.61
5350;BME280;2697;42.144;24.794;2023-01-08T13:12:56;155270.22;;;10.48;71.39
5350;BME280;2697;42.144;24.794;2023-01-08T13:15:26;155255.78;;;10.43;72.35
5350;BME280;2697;42.144;24.794;2023-01-08T13:17:54;155236.00;;;10.35;73.15
5350;BME280;2697;42.144;24.794;2023-01-08T13:20:23;155243.91;;;10.38;73.38
5350;BME280;2697;42.144;24.794;2023-01-08T13:22:56;155247.84;;;10.40;72.91
5350;BME280;2697;42.144;24.794;2023-01-08T13:27:48;155221.50;;;10.30;72.64
5350;BME280;2697;42.144;24.794;2023-01-08T13:32:58;155197.75;;;10.20;73.51
5350;BME280;2697;42.144;24.794;2023-01-08T13:35:28;155195.13;;;10.19;73.86
5350;BME280;2697;42.144;24.794;2023-01-08T13:43:02;155205.69;;;10.23;73.68
5350;BME280;2697;42.144;24.794;2023-01-08T13:45:29;155207.06;;;10.24;73.36
5350;BME280;2697;42.144;24.794;2023-01-08T13:47:55;155196.44;;;10.20;73.23
5350;BME280;2697;42.144;24.794;2023-01-08T13:50:23;155162.25;;;10.07;73.79
5350;BME280;2697;42.144;24.794;2023-01-08T13:53:00;155138.56;;;9.97;74.76
5350;BME280;2697;42.144;24.794;2023-01-08T13:55:38;155149.06;;;10.02;74.67
5350;BME280;2697;42.144;24.794;2023-01-08T13:58:14;155130.63;;;9.94;74.88
5350;BME280;2697;42.144;24.794;2023-01-08T14:03:29;155096.44;;;9.81;75.85
5350;BME280;2697;42.144;24.794;2023-01-08T14:11:23;155071.44;;;9.71;76.71
5350;BME280;2697;42.144;24.794;2023-01-08T14:13:49;155043.81;;;9.61;78.29
5350;BME280;2697;42.144;24.794;2023-01-08T14:16:16;155041.19;;;9.60;78.43
5350;BME280;2697;42.144;24.794;2023-01-08T14:18:43;155043.81;;;9.61;78.67
5350;BME280;2697;42.144;24.794;2023-01-08T14:21:13;155081.94;;;9.76;77.96
5350;BME280;2697;42.144;24.794;2023-01-08T14:23:41;155093.81;;;9.80;76.72
5350;BME280;2697;42.144;24.794;2023-01-08T14:26:07;155114.88;;;9.88;75.95
5350;BME280;2697;42.144;24.794;2023-01-08T14:28:38;155117.50;;;9.89;76.33
5350;BME280;2697;42.144;24.794;2023-01-08T14:31:04;155114.88;;;9.88;76.14
5350;BME280;2697;42.144;24.794;2023-01-08T14:33:33;155064.88;;;9.69;77.49
5350;BME280;2697;42.144;24.794;2023-01-08T14:36:00;155003.00;;;9.45;78.00
5350;BME280;2697;42.144;24.794;2023-01-08T14:38:26;154959.59;;;9.28;79.34